Time;durP1;ratioP1;P1;durP2;ratioP2;P2;SDS_P1;SDS_P2;PMS_P1;PMS_P2;Temp;Humidity;BMP_temperature;BMP_pressure;BME280_temperature;BME280_humidity;BME280_pressure;Samples;Min_cycle;Max_cycle;Signal;HPM_P1;HPM_P2
2022/09/08 00:00:56;;;;;;;16.77;3.60;;;;;;;23.74;54.03;100062.56;5044913;28;20021;-79
2022/09/08 00:03:25;;;;;;;13.18;3.60;;;;;;;23.65;54.41;100059.47;5031558;28;20060;-79
2022/09/08 00:05:59;;;;;;;19.27;3.78;;;;;;;23.57;54.97;100053.16;5032729;28;20061;-79
2022/09/08 00:08:25;;;;;;;13.25;3.53;;;;;;;23.48;55.17;100056.47;5040600;28;20024;-79
2022/09/08 00:10:57;;;;;;;14.63;3.30;;;;;;;23.66;54.60;100052.72;5051445;28;20056;-79
2022/09/08 00:13:25;;;;;;;15.38;3.53;;;;;;;23.57;54.82;100052.38;5052505;28;20021;-79
2022/09/08 00:15:51;;;;;;;9.68;2.75;;;;;;;23.51;55.07;100046.50;5050820;28;20033;-79
2022/09/08 00:18:17;;;;;;;11.13;3.38;;;;;;;23.52;54.84;100051.66;5052265;28;20109;-81
2022/09/08 00:20:43;;;;;;;21.05;3.72;;;;;;;23.66;54.53;100050.72;5052601;28;20017;-82
2022/09/08 00:23:09;;;;;;;24.95;4.45;;;;;;;23.69;54.07;100049.84;5051932;28;20029;-79
2022/09/08 00:25:34;;;;;;;18.48;3.42;;;;;;;23.66;54.32;100045.13;5052354;28;20060;-79
2022/09/08 00:28:00;;;;;;;8.07;2.70;;;;;;;23.59;54.47;100042.41;5051823;28;20032;-79
2022/09/08 00:30:26;;;;;;;20.50;3.85;;;;;;;23.69;54.14;100044.28;5052371;28;20108;-80
2022/09/08 00:32:51;;;;;;;13.15;3.17;;;;;;;23.47;54.42;100040.16;5052207;28;20032;-79
2022/09/08 00:35:18;;;;;;;13.13;3.60;;;;;;;23.58;54.01;100043.63;5052489;28;20506;-79
2022/09/08 00:37:47;;;;;;;17.60;3.97;;;;;;;23.54;53.92;100040.06;5051247;28;20036;-79
2022/09/08 00:40:14;;;;;;;17.02;3.70;;;;;;;23.58;53.84;100038.03;5052252;28;20392;-81
2022/09/08 00:42:41;;;;;;;14.10;3.53;;;;;;;23.55;53.83;100044.44;5052232;28;20101;-79
2022/09/08 00:45:10;;;;;;;16.83;4.10;;;;;;;23.66;53.72;100039.56;5052175;28;20021;-79
2022/09/08 00:47:41;;;;;;;18.55;3.60;;;;;;;23.72;53.02;100037.06;5055343;28;20029;-79
2022/09/08 00:50:22;;;;;;;12.48;2.70;;;;;;;23.75;53.39;100036.25;5056479;28;20027;-79
2022/09/08 00:53:03;;;;;;;13.15;3.53;;;;;;;23.49;54.22;100041.31;5056054;28;20079;-79
2022/09/08 00:55:32;;;;;;;16.20;4.20;;;;;;;23.77;53.41;100040.19;5056364;28;20036;-79
2022/09/08 00:57:57;;;;;;;13.23;4.00;;;;;;;23.75;53.25;100039.81;5056181;28;20447;-80
2022/09/08 01:00:24;;;;;;;19.88;3.60;;;;;;;23.86;53.17;100030.50;5056098;28;20060;-79
2022/09/08 01:02:49;;;;;;;11.68;3.33;;;;;;;23.77;53.39;100037.38;5055617;28;20017;-79
2022/09/08 01:05:20;;;;;;;15.90;4.40;;;;;;;23.92;52.71;100034.41;5055610;28;20021;-79
2022/09/08 01:13:38;;;;;;;12.03;3.20;;;;;;;23.83;52.77;100036.94;5056053;28;20464;-80
2022/09/08 01:16:06;;;;;;;17.25;3.58;;;;;;;23.75;52.96;100036.25;5055769;28;20052;-79
2022/09/08 01:18:34;;;;;;;15.50;3.22;;;;;;;23.89;52.56;100036.03;5055889;28;20033;-79
2022/09/08 01:21:23;;;;;;;18.85;4.28;;;;;;;23.99;52.19;100037.09;5055853;28;20471;-79
2022/09/08 01:24:20;;;;;;;14.83;3.07;;;;;;;23.98;52.31;100033.50;5052197;28;20037;-79
2022/09/08 01:27:00;;;;;;;17.27;3.65;;;;;;;23.86;53.23;100047.25;5044017;28;20289;-80
2022/09/08 01:29:25;;;;;;;19.73;4.28;;;;;;;23.87;53.02;100044.03;5055142;28;20028;-80
2022/09/08 01:31:53;;;;;;;12.85;3.67;;;;;;;23.79;53.23;100037.75;5054867;28;20021;-79
2022/09/08 01:34:19;;;;;;;16.92;3.75;;;;;;;23.90;52.86;100037.63;5055219;28;20017;-79
2022/09/08 01:36:45;;;;;;;15.40;3.20;;;;;;;23.96;52.60;100035.16;5055062;28;20029;-79
2022/09/08 01:39:10;;;;;;;14.10;2.80;;;;;;;24.02;52.30;100031.44;5055046;28;20033;-79
2022/09/08 01:41:36;;;;;;;18.02;3.63;;;;;;;24.03;52.44;100030.25;5054449;28;20025;-81
2022/09/08 01:44:02;;;;;;;18.42;3.58;;;;;;;23.91;52.53;100036.41;5054548;28;20021;-79
2022/09/08 01:46:29;;;;;;;17.23;3.67;;;;;;;23.86;53.24;100030.50;5055109;28;20060;-79
2022/09/08 01:48:55;;;;;;;14.73;3.70;;;;;;;23.90;52.97;100028.47;5054259;28;20017;-79
2022/09/08 01:51:20;;;;;;;19.10;3.50;;;;;;;23.83;53.16;100020.19;5054083;28;20029;-79
2022/09/08 01:53:46;;;;;;;14.02;3.55;;;;;;;23.69;53.80;100024.75;5053172;28;20049;-79
2022/09/08 01:56:12;;;;;;;11.52;2.95;;;;;;;23.66;53.68;100022.03;5054883;28;20071;-82
2022/09/08 01:58:37;;;;;;;13.68;3.33;;;;;;;23.68;53.64;100014.81;5053921;28;20025;-79
2022/09/08 02:01:04;;;;;;;15.10;3.78;;;;;;;23.78;53.44;100016.66;5055087;28;20037;-79
2022/09/08 02:03:30;;;;;;;17.50;3.30;;;;;;;23.78;53.71;100018.66;5054990;28;20029;-79
2022/09/08 02:06:00;;;;;;;22.08;3.97;;;;;;;23.82;53.26;100018.63;5054880;28;20370;-81
2022/09/08 02:08:26;;;;;;;15.77;4.63;;;;;;;23.91;53.29;100013.31;5053819;28;20102;-80
2022/09/08 02:10:53;;;;;;;15.23;3.22;;;;;;;23.92;53.47;100018.44;5054874;28;20066;-79
2022/09/08 02:13:19;;;;;;;18.23;3.72;;;;;;;23.94;53.51;100021.59;5054788;28;20029;-80
2022/09/08 02:15:44;;;;;;;20.17;4.20;;;;;;;23.86;53.84;100022.91;5054841;28;20037;-79
2022/09/08 02:18:10;;;;;;;11.77;3.60;;;;;;;23.93;53.34;100022.81;5054794;28;20498;-79
2022/09/08 02:20:36;;;;;;;15.88;3.55;;;;;;;23.89;53.51;100010.94;5054684;28;20104;-80
2022/09/08 02:23:01;;;;;;;17.25;3.05;;;;;;;23.95;53.39;100011.22;5052868;28;20037;-81
2022/09/08 02:25:27;;;;;;;19.15;4.28;;;;;;;23.86;53.92;100010.97;5052856;28;20036;-80
2022/09/08 02:27:53;;;;;;;17.75;3.33;;;;;;;23.93;53.72;100013.66;5054662;28;20082;-79
2022/09/08 02:30:19;;;;;;;17.98;4.05;;;;;;;23.84;53.73;100016.19;5054328;28;20029;-79
2022/09/08 02:32:44;;;;;;;14.98;3.90;;;;;;;23.77;54.23;100015.06;5054512;28;20044;-79
2022/09/08 02:35:10;;;;;;;13.07;3.22;;;;;;;23.68;54.40;100003.66;5054441;28;20029;-79
2022/09/08 02:37:35;;;;;;;15.88;3.17;;;;;;;23.49;54.92;100015.44;5054117;28;20040;-80
2022/09/08 02:40:03;;;;;;;15.40;3.33;;;;;;;23.58;54.78;100009.34;5053680;28;20029;-79
2022/09/08 02:42:28;;;;;;;13.55;3.47;;;;;;;23.79;53.93;100007.06;5052476;28;20025;-79
2022/09/08 02:44:54;;;;;;;14.57;3.83;;;;;;;23.83;53.48;100003.47;5054046;28;20518;-79
2022/09/08 02:47:19;;;;;;;16.92;4.10;;;;;;;23.88;53.49;100009.34;5053021;28;20040;-79
2022/09/08 02:49:45;;;;;;;20.17;3.55;;;;;;;23.93;53.18;100005.28;5052573;28;20037;-79
2022/09/08 02:52:11;;;;;;;18.95;5.03;;;;;;;23.79;53.55;100009.84;5053755;28;20412;-79
2022/09/08 02:54:37;;;;;;;7.88;3.03;;;;;;;23.77;53.67;100001.13;5054011;28;20055;-78
2022/09/08 02:57:03;;;;;;;19.48;4.20;;;;;;;23.81;53.67;100006.69;5051755;28;20058;-79
2022/09/08 02:59:28;;;;;;;15.45;3.20;;;;;;;23.85;53.51;100007.41;5053842;28;20116;-79
2022/09/08 03:01:54;;;;;;;17.58;4.07;;;;;;;23.76;53.59;100007.94;5052726;28;20029;-79
2022/09/08 03:04:19;;;;;;;9.65;3.40;;;;;;;23.59;53.49;100020.09;5053650;28;20240;-79
2022/09/08 03:06:45;;;;;;;13.48;3.17;;;;;;;23.40;53.67;100013.16;5053479;28;20087;-79
2022/09/08 03:09:11;;;;;;;8.73;2.35;;;;;;;23.51;53.45;100016.59;5053214;28;20127;-78
2022/09/08 03:11:36;;;;;;;14.25;3.00;;;;;;;23.63;52.82;100006.13;5045462;28;20094;-79
2022/09/08 03:14:03;;;;;;;10.48;2.85;;;;;;;23.65;52.63;100010.06;5043576;28;20033;-79
2022/09/08 03:16:29;;;;;;;16.90;3.17;;;;;;;23.74;52.72;100012.34;5038363;28;20467;-80
2022/09/08 03:18:55;;;;;;;18.70;3.97;;;;;;;23.80;52.58;100013.44;5045138;28;20031;-80
2022/09/08 03:21:20;;;;;;;15.85;3.42;;;;;;;23.85;52.70;100001.03;5043298;28;20025;-81
2022/09/08 03:23:46;;;;;;;16.08;3.75;;;;;;;23.92;52.82;100006.50;5042175;28;20480;-81
2022/09/08 03:26:20;;;;;;;17.10;4.90;;;;;;;23.89;53.23;100005.34;5041668;28;20108;-81
2022/09/08 03:28:46;;;;;;;12.43;3.17;;;;;;;23.94;52.88;99999.28;5043452;28;20372;-81
2022/09/08 03:31:17;;;;;;;13.82;3.55;;;;;;;23.89;53.40;100002.56;5035844;28;20029;-82
2022/09/08 03:33:43;;;;;;;16.45;3.30;;;;;;;23.77;54.09;100006.72;5034528;28;20025;-79
2022/09/08 03:36:11;;;;;;;17.08;3.95;;;;;;;23.86;53.76;100002.59;5033335;28;20030;-78
2022/09/08 03:38:37;;;;;;;14.70;3.55;;;;;;;23.88;54.20;100012.16;5032864;28;20105;-79
2022/09/08 03:41:14;;;;;;;18.25;3.60;;;;;;;23.91;53.93;100013.31;5032121;28;20535;-80
2022/09/08 03:43:49;;;;;;;15.90;3.70;;;;;;;23.85;54.14;100018.56;5033432;28;20025;-79
2022/09/08 03:46:15;;;;;;;17.60;4.50;;;;;;;23.70;54.99;100009.59;5038704;28;20021;-80
2022/09/08 03:48:41;;;;;;;12.65;3.08;;;;;;;23.76;54.77;100013.50;5053075;28;20025;-80
2022/09/08 03:51:24;;;;;;;13.98;3.40;;;;;;;23.58;55.16;100010.16;5047913;28;20472;-81
2022/09/08 03:53:50;;;;;;;17.25;4.10;;;;;;;23.66;54.62;100008.09;5042218;28;20129;-81
2022/09/08 03:56:15;;;;;;;25.20;4.80;;;;;;;23.68;54.76;100009.22;5041271;28;20549;-81
2022/09/08 03:58:41;;;;;;;17.25;4.25;;;;;;;23.64;54.95;100010.47;5040469;28;20036;-80
2022/09/08 04:01:13;;;;;;;19.20;4.25;;;;;;;23.66;55.10;100014.44;5041128;28;20104;-82
2022/09/08 04:03:39;;;;;;;23.33;5.30;;;;;;;23.73;54.75;100011.56;5043203;28;20044;-80
2022/09/08 04:06:05;;;;;;;15.45;3.58;;;;;;;23.69;54.85;100004.44;5039929;28;20056;-79
2022/09/08 04:08:31;;;;;;;10.82;2.95;;;;;;;23.63;55.04;100008.91;5041450;28;20375;-79
2022/09/08 04:10:57;;;;;;;21.73;4.00;;;;;;;23.57;55.24;100018.91;5041343;28;20099;-80
2022/09/08 04:13:24;;;;;;;13.65;4.03;;;;;;;23.56;55.32;100012.56;5040365;28;20024;-82
2022/09/08 04:15:49;;;;;;;15.50;4.10;;;;;;;23.50;55.05;100014.22;5042259;28;20053;-80
2022/09/08 04:18:15;;;;;;;14.68;3.70;;;;;;;23.59;54.83;100013.72;5040901;28;20439;-81
2022/09/08 04:20:41;;;;;;;21.05;4.63;;;;;;;23.65;54.24;100021.22;5040137;28;20483;-80
2022/09/08 04:23:07;;;;;;;16.08;3.50;;;;;;;23.63;54.44;100014.47;5040762;28;20101;-82
2022/09/08 04:25:33;;;;;;;20.23;3.53;;;;;;;23.65;54.24;100009.28;5041596;28;20056;-80
2022/09/08 04:27:58;;;;;;;21.80;3.60;;;;;;;23.72;53.87;100009.97;5042853;28;20523;-81
2022/09/08 04:30:24;;;;;;;15.38;3.78;;;;;;;23.73;54.29;100008.78;5045995;28;20033;-79
2022/09/08 04:32:49;;;;;;;19.48;4.40;;;;;;;23.72;54.50;100014.75;5042599;28;20445;-81
2022/09/08 04:35:15;;;;;;;22.35;4.03;;;;;;;23.74;54.42;100006.78;5045206;28;20029;-79
2022/09/08 04:37:41;;;;;;;13.00;4.20;;;;;;;23.74;54.66;100006.78;5050972;28;20037;-80
2022/09/08 04:40:07;;;;;;;20.42;4.43;;;;;;;23.68;54.91;100011.25;5051300;28;20491;-80
2022/09/08 04:42:33;;;;;;;18.27;5.03;;;;;;;23.65;55.06;100012.84;5051373;28;20039;-80
2022/09/08 04:45:00;;;;;;;19.15;4.18;;;;;;;23.63;55.12;100015.28;5052481;28;20486;-79
2022/09/08 04:47:26;;;;;;;15.85;3.95;;;;;;;23.61;55.03;100019.69;5052267;28;20029;-80
2022/09/08 04:49:53;;;;;;;16.35;3.83;;;;;;;23.62;54.84;100016.47;5052386;28;20040;-79
2022/09/08 04:52:20;;;;;;;21.33;4.20;;;;;;;23.48;55.23;100016.63;5052424;28;20085;-79
2022/09/08 04:54:46;;;;;;;16.75;4.47;;;;;;;23.44;55.54;100018.69;5049859;28;20029;-79
2022/09/08 04:57:13;;;;;;;16.63;4.65;;;;;;;23.47;55.40;100021.44;5032101;28;20399;-80
2022/09/08 04:59:39;;;;;;;23.20;4.63;;;;;;;23.45;55.51;100023.06;5032349;28;20522;-79
2022/09/08 05:02:05;;;;;;;19.58;4.50;;;;;;;23.47;55.66;100021.44;5032059;28;20032;-79
2022/09/08 05:04:30;;;;;;;17.77;4.25;;;;;;;23.45;55.35;100017.50;5031720;28;20124;-79
2022/09/08 05:06:56;;;;;;;17.45;4.35;;;;;;;23.40;55.57;100017.94;5044124;28;20033;-79
2022/09/08 05:09:21;;;;;;;22.15;4.47;;;;;;;23.21;56.13;100019.38;5052142;28;20107;-79
2022/09/08 05:11:47;;;;;;;24.02;4.63;;;;;;;23.18;56.17;100017.41;5050155;28;20037;-79
2022/09/08 05:14:13;;;;;;;15.05;3.85;;;;;;;23.13;56.68;100018.69;5052063;28;20028;-79
2022/09/08 05:16:38;;;;;;;19.63;4.50;;;;;;;23.21;56.30;100030.53;5052019;28;20091;-80
2022/09/08 05:19:06;;;;;;;17.88;4.13;;;;;;;23.36;56.11;100017.22;5052066;28;20060;-79
2022/09/08 05:21:33;;;;;;;24.33;4.63;;;;;;;23.32;56.28;100022.03;5052031;28;20112;-79
2022/09/08 05:24:00;;;;;;;25.90;5.45;;;;;;;23.30;56.03;100018.88;5051889;28;20071;-79
2022/09/08 05:26:26;;;;;;;19.40;5.72;;;;;;;23.37;56.17;100019.56;5051256;28;20033;-80
2022/09/08 05:28:53;;;;;;;17.50;4.70;;;;;;;23.34;56.21;100017.59;5051428;28;20527;-80
2022/09/08 05:31:21;;;;;;;14.90;4.95;;;;;;;23.32;56.27;100017.25;5051559;28;20083;-80
2022/09/08 05:33:47;;;;;;;21.75;5.63;;;;;;;23.35;56.19;100019.22;5055353;28;20029;-80
2022/09/08 05:36:21;;;;;;;27.27;5.07;;;;;;;23.26;56.71;100016.91;5055658;28;20033;-78
2022/09/08 05:38:47;;;;;;;18.85;5.35;;;;;;;23.33;56.88;100015.25;5055519;28;20025;-80
2022/09/08 05:41:13;;;;;;;21.98;5.25;;;;;;;23.32;56.77;100014.47;5055561;28;20057;-79
2022/09/08 05:43:39;;;;;;;20.95;6.40;;;;;;;23.33;56.67;100023.59;5055423;28;20075;-79
2022/09/08 05:46:06;;;;;;;18.20;5.00;;;;;;;23.38;56.71;100028.72;5054946;28;20033;-80
2022/09/08 05:48:32;;;;;;;21.42;6.72;;;;;;;23.33;56.87;100023.59;5054851;28;20029;-79
2022/09/08 05:50:57;;;;;;;19.88;5.15;;;;;;;23.31;56.69;100012.88;5054621;28;20029;-81
2022/09/08 05:53:24;;;;;;;21.67;5.20;;;;;;;23.40;56.46;100034.66;5054619;28;20109;-81
2022/09/08 05:56:01;;;;;;;21.92;4.95;;;;;;;23.36;56.72;100037.50;5055587;28;20029;-79
2022/09/08 05:58:28;;;;;;;21.33;4.72;;;;;;;23.38;56.54;100029.53;5053862;28;20098;-79
2022/09/08 06:01:03;;;;;;;20.02;5.38;;;;;;;23.12;57.01;100033.78;5049836;28;20025;-82
2022/09/08 06:03:29;;;;;;;15.95;5.32;;;;;;;23.17;57.02;100036.13;5045135;28;20078;-82
2022/09/08 06:05:55;;;;;;;15.52;4.55;;;;;;;23.18;56.74;100037.72;5044738;28;20108;-82
2022/09/08 06:08:22;;;;;;;15.93;3.90;;;;;;;23.03;57.22;100035.50;5033825;28;20068;-79
2022/09/08 06:10:50;;;;;;;18.83;5.53;;;;;;;23.10;57.10;100043.78;5033967;28;20387;-79
2022/09/08 06:13:16;;;;;;;13.32;4.20;;;;;;;23.16;56.56;100045.69;5038128;28;20467;-81
2022/09/08 06:15:42;;;;;;;13.80;4.32;;;;;;;23.14;57.17;100053.69;5054317;28;20032;-80
2022/09/08 06:18:08;;;;;;;21.08;4.63;;;;;;;23.12;57.19;100050.50;5054606;28;20036;-80
2022/09/08 06:20:33;;;;;;;26.38;5.35;;;;;;;23.10;57.28;100046.56;5054518;28;20160;-79
2022/09/08 06:22:59;;;;;;;20.33;4.05;;;;;;;23.12;57.00;100052.50;5054258;28;20021;-81
2022/09/08 06:25:25;;;;;;;22.77;4.00;;;;;;;23.14;57.25;100045.34;5054432;28;20024;-80
2022/09/08 06:28:13;;;;;;;16.42;5.25;;;;;;;23.19;57.15;100050.44;5054454;28;20025;-79
2022/09/08 06:30:45;;;;;;;19.70;5.10;;;;;;;23.18;57.30;100059.22;5054567;28;20023;-79
2022/09/08 06:33:14;;;;;;;24.15;6.45;;;;;;;23.30;57.28;100049.53;5054468;28;20025;-79
2022/09/08 06:35:49;;;;;;;22.50;6.07;;;;;;;23.40;56.98;100043.81;5054536;28;20025;-80
2022/09/08 06:38:22;;;;;;;25.48;6.40;;;;;;;23.49;57.02;100040.53;5052383;28;20494;-79
2022/09/08 06:40:53;;;;;;;25.75;6.07;;;;;;;23.40;57.04;100049.41;5051418;28;20104;-79
2022/09/08 06:43:27;;;;;;;21.90;5.47;;;;;;;23.45;57.18;100053.72;5052579;28;20032;-79
2022/09/08 06:45:56;;;;;;;24.67;6.40;;;;;;;23.65;56.12;100057.47;5034963;28;20160;-81
2022/09/08 06:48:33;;;;;;;23.67;5.97;;;;;;;23.49;56.63;100073.97;5022054;28;20067;-80
2022/09/08 06:51:22;;;;;;;25.20;6.63;;;;;;;23.47;57.12;100066.03;5037135;28;20021;-79
2022/09/08 06:54:08;;;;;;;29.20;5.65;;;;;;;23.59;56.47;100075.88;5037935;28;20548;-79
2022/09/08 06:56:40;;;;;;;20.92;5.38;;;;;;;23.66;56.51;100075.03;5025518;28;20479;-79
2022/09/08 06:59:24;;;;;;;18.50;4.90;;;;;;;23.81;55.98;100073.63;5031534;28;20029;-79
2022/09/08 07:02:18;;;;;;;19.95;5.50;;;;;;;23.93;55.73;100080.63;5019433;28;20550;-80
2022/09/08 07:05:01;;;;;;;15.30;4.80;;;;;;;23.98;55.61;100085.75;5015611;28;20050;-79
2022/09/08 07:07:49;;;;;;;18.45;6.28;;;;;;;24.00;55.81;100080.53;5036448;28;20029;-79
2022/09/08 07:10:46;;;;;;;25.73;6.50;;;;;;;24.04;55.79;100081.28;5035740;28;20033;-79
2022/09/08 07:13:21;;;;;;;20.45;5.18;;;;;;;24.09;56.09;100078.00;5019539;28;20041;-80
2022/09/08 07:16:15;;;;;;;21.52;5.90;;;;;;;24.09;55.87;100078.78;5032557;28;20029;-79
2022/09/08 07:18:48;;;;;;;27.70;5.82;;;;;;;24.20;55.61;100067.47;5024158;28;20298;-79
2022/09/08 07:21:27;;;;;;;27.38;5.22;;;;;;;24.17;55.18;100070.31;5036623;28;21026;-79
2022/09/08 07:23:54;;;;;;;21.02;5.78;;;;;;;24.13;55.07;100067.56;5036513;28;20111;-79
2022/09/08 07:26:44;;;;;;;23.40;5.32;;;;;;;24.07;54.86;100091.59;5035635;28;20035;-79
2022/09/08 07:29:22;;;;;;;21.60;4.63;;;;;;;24.06;54.92;100081.63;5036630;28;20097;-79
2022/09/08 07:31:52;;;;;;;20.85;5.45;;;;;;;24.05;54.80;100086.44;5017781;28;20040;-80
2022/09/08 07:34:27;;;;;;;25.25;6.88;;;;;;;24.00;54.89;100086.09;5030824;28;20549;-79
2022/09/08 07:37:24;;;;;;;28.38;5.45;;;;;;;24.01;54.97;100082.88;5015839;28;20034;-79
2022/09/08 07:40:00;;;;;;;23.00;5.85;;;;;;;24.19;54.54;100081.84;5015852;28;20116;-79
2022/09/08 07:42:26;;;;;;;17.13;3.95;;;;;;;24.18;54.70;100083.84;5042126;28;20427;-81
2022/09/08 07:45:01;;;;;;;22.75;5.10;;;;;;;24.19;54.86;100095.81;5035792;28;20032;-79
2022/09/08 07:47:38;;;;;;;12.15;3.50;;;;;;;24.26;54.47;100096.50;5036602;28;20068;-80
2022/09/08 07:53:38;;;;;;;26.30;5.32;;;;;;;24.31;53.65;100100.78;5029617;28;20056;-80
2022/09/08 07:56:17;;;;;;;24.08;5.55;;;;;;;24.22;53.74;100098.53;5024603;28;20120;-80
2022/09/08 07:59:03;;;;;;;28.02;5.60;;;;;;;24.26;53.61;100099.28;5029645;28;20033;-80
2022/09/08 08:01:50;;;;;;;19.92;4.70;;;;;;;24.11;53.85;100097.09;5034640;28;20124;-81
2022/09/08 08:04:37;;;;;;;15.45;4.60;;;;;;;24.14;53.72;100097.06;5026280;28;20026;-81
2022/09/08 08:07:09;;;;;;;19.67;4.68;;;;;;;24.18;53.71;100097.81;5016499;28;20021;-79
2022/09/08 08:09:47;;;;;;;16.80;4.72;;;;;;;24.33;53.71;100104.78;5016917;28;20043;-79
2022/09/08 08:12:40;;;;;;;18.83;4.95;;;;;;;24.50;53.67;100107.72;5027922;28;20059;-79
2022/09/08 08:15:11;;;;;;;16.00;4.50;;;;;;;24.50;53.76;100099.34;5017165;28;20021;-79
2022/09/08 08:17:48;;;;;;;19.20;5.88;;;;;;;24.45;53.89;100105.41;5038670;28;20070;-80
2022/09/08 08:20:40;;;;;;;19.73;5.45;;;;;;;24.55;53.34;100096.06;5052610;28;20025;-79
2022/09/08 08:23:36;;;;;;;22.80;5.25;;;;;;;24.51;52.94;100101.72;5052781;28;20479;-79
2022/09/08 08:26:11;;;;;;;20.23;5.30;;;;;;;24.48;52.78;100115.72;5052621;28;20025;-79
2022/09/08 08:28:42;;;;;;;16.00;5.88;;;;;;;24.39;52.80;100107.09;5052705;28;20025;-79
2022/09/08 08:31:15;;;;;;;15.98;4.78;;;;;;;24.40;53.18;100108.66;5052579;28;20029;-80
2022/09/08 08:34:01;;;;;;;16.25;5.38;;;;;;;24.39;52.80;100121.06;5052681;28;20104;-79
2022/09/08 08:36:31;;;;;;;20.25;5.75;;;;;;;24.39;52.82;100118.25;5052511;28;20032;-81
2022/09/08 08:39:00;;;;;;;21.30;4.93;;;;;;;24.33;53.11;100120.72;5052592;28;20100;-79
2022/09/08 08:41:38;;;;;;;19.60;5.38;;;;;;;24.39;52.77;100118.25;5051173;28;20581;-80
2022/09/08 08:44:20;;;;;;;20.73;4.93;;;;;;;24.35;52.42;100115.53;5052251;28;20036;-78
2022/09/08 08:47:07;;;;;;;21.48;5.30;;;;;;;24.33;52.70;100124.34;5051076;28;20100;-79
2022/09/08 08:50:00;;;;;;;22.17;4.80;;;;;;;24.11;53.16;100130.59;5052384;28;20075;-78
2022/09/08 08:52:57;;;;;;;27.35;6.38;;;;;;;24.35;53.21;100127.50;5051970;28;20115;-80
2022/09/08 08:55:45;;;;;;;18.65;4.38;;;;;;;24.48;53.34;100124.88;5050787;28;20025;-81
2022/09/08 08:58:49;;;;;;;25.63;5.72;;;;;;;24.66;52.69;100130.22;5052687;28;20090;-80
2022/09/08 09:01:36;;;;;;;19.83;4.85;;;;;;;24.78;52.46;100129.59;5052210;28;20029;-79
2022/09/08 09:04:20;;;;;;;23.58;6.28;;;;;;;24.81;52.41;100131.56;5067624;28;20052;-79
2022/09/08 09:07:22;;;;;;;14.52;4.25;;;;;;;24.71;52.33;100128.91;5051458;28;20468;-79
2022/09/08 09:10:07;;;;;;;23.00;5.53;;;;;;;24.72;52.26;100133.31;5068489;28;20488;-80
2022/09/08 09:13:00;;;;;;;20.50;5.15;;;;;;;24.83;51.87;100140.28;5052881;28;20522;-80
2022/09/08 09:15:40;;;;;;;26.25;6.70;;;;;;;24.80;52.01;100143.94;5052641;28;20025;-80
2022/09/08 09:18:27;;;;;;;20.45;5.13;;;;;;;24.75;51.75;100147.22;5052732;28;20021;-80
2022/09/08 09:21:08;;;;;;;18.83;5.25;;;;;;;24.92;51.92;100145.31;5053850;28;20701;-79
2022/09/08 09:23:42;;;;;;;20.20;6.05;;;;;;;24.83;51.78;100142.28;5053350;28;20027;-80
2022/09/08 09:26:19;;;;;;;19.92;6.20;;;;;;;24.89;51.25;100146.97;5054189;28;20066;-79
2022/09/08 09:29:12;;;;;;;29.88;5.93;;;;;;;24.62;51.53;100143.44;5054430;28;20104;-80
2022/09/08 09:31:44;;;;;;;18.70;6.10;;;;;;;24.77;51.95;100155.94;5054587;28;20017;-80
2022/09/08 09:34:22;;;;;;;22.52;5.65;;;;;;;25.03;50.77;100145.16;5053489;28;20021;-79
2022/09/08 09:37:05;;;;;;;22.88;6.28;;;;;;;24.97;51.34;100158.03;5054484;28;20025;-80
2022/09/08 09:39:57;;;;;;;17.33;5.78;;;;;;;25.21;50.99;100148.44;5055403;28;20024;-79
2022/09/08 09:42:50;;;;;;;23.00;6.00;;;;;;;25.36;50.96;100162.97;5043834;28;20033;-79
2022/09/08 09:45:54;;;;;;;20.88;5.63;;;;;;;25.63;50.83;100154.47;5055535;28;20024;-79
2022/09/08 09:48:38;;;;;;;17.58;4.93;;;;;;;25.63;50.38;100155.25;5036356;28;20028;-79
2022/09/08 09:51:32;;;;;;;19.67;6.07;;;;;;;25.80;49.98;100147.75;5052855;28;20021;-79
2022/09/08 09:54:23;;;;;;;16.00;4.82;;;;;;;25.85;49.88;100161.25;5025456;28;20049;-80
2022/09/08 09:57:01;;;;;;;18.33;4.10;;;;;;;26.08;49.17;100162.38;5055287;28;20064;-79
2022/09/08 09:59:45;;;;;;;18.08;5.05;;;;;;;26.14;49.05;100161.41;5055225;28;20475;-79
2022/09/08 10:02:23;;;;;;;21.17;4.53;;;;;;;26.23;48.94;100166.44;5070657;28;20434;-79
2022/09/08 10:05:07;;;;;;;11.90;3.87;;;;;;;26.13;47.92;100167.44;5055347;28;20475;-80
2022/09/08 10:08:10;;;;;;;16.98;4.50;;;;;;;26.22;47.68;100174.03;5055131;28;20047;-80
2022/09/08 10:10:45;;;;;;;23.70;5.43;;;;;;;26.25;47.50;100170.38;5054612;28;20037;-80
2022/09/08 10:13:32;;;;;;;14.88;3.97;;;;;;;26.33;46.69;100178.59;5054687;28;20040;-79
2022/09/08 10:16:00;;;;;;;18.70;5.05;;;;;;;26.32;47.05;100183.41;5054737;28;20036;-80
2022/09/08 10:18:54;;;;;;;23.17;5.80;;;;;;;26.26;46.62;100188.75;5069111;28;20418;-79
2022/09/08 10:21:47;;;;;;;14.18;5.55;;;;;;;26.26;46.74;100185.16;5054900;28;20115;-79
2022/09/08 10:24:35;;;;;;;24.52;8.48;;;;;;;25.92;47.46;100185.47;5054106;28;20033;-80
2022/09/08 10:27:31;;;;;;;20.35;7.70;;;;;;;25.70;47.80;100185.09;5054667;28;20040;-79
2022/09/08 10:30:21;;;;;;;24.85;8.13;;;;;;;25.62;48.13;100186.47;5054605;28;20028;-79
2022/09/08 10:33:34;;;;;;;17.88;7.32;;;;;;;25.31;48.62;100189.41;5054767;28;20099;-79
2022/09/08 10:36:10;;;;;;;17.80;7.75;;;;;;;25.24;48.82;100189.56;5053561;28;20555;-79
2022/09/08 10:38:55;;;;;;;21.88;7.78;;;;;;;25.21;48.73;100190.38;5052994;28;20035;-80
2022/09/08 10:41:26;;;;;;;17.02;7.88;;;;;;;25.14;48.77;100190.50;5053267;28;20143;-79
2022/09/08 10:44:08;;;;;;;22.55;8.65;;;;;;;24.99;48.81;100191.94;5069833;28;20040;-79
2022/09/08 10:47:16;;;;;;;18.75;9.05;;;;;;;24.88;49.24;100195.69;5054119;28;20032;-80
2022/09/08 10:50:03;;;;;;;21.08;8.02;;;;;;;25.00;49.58;100201.88;5054130;28;20025;-80
2022/09/08 10:52:53;;;;;;;18.42;8.23;;;;;;;25.03;49.39;100195.47;5053061;28;20049;-80
2022/09/08 10:55:53;;;;;;;23.80;9.57;;;;;;;25.18;49.48;100194.03;5054226;28;20065;-80
2022/09/08 10:58:56;;;;;;;21.85;8.25;;;;;;;25.22;49.84;100193.97;5052877;28;20040;-82
2022/09/08 11:01:42;;;;;;;22.85;9.50;;;;;;;25.38;49.78;100200.44;5053995;28;20432;-81
2022/09/08 11:04:40;;;;;;;22.38;8.45;;;;;;;25.58;49.58;100200.50;5054013;28;20064;-82
2022/09/08 11:07:27;;;;;;;20.80;8.63;;;;;;;25.75;48.66;100198.59;5054036;28;20036;-81
2022/09/08 11:10:27;;;;;;;19.05;8.43;;;;;;;25.92;48.52;100191.06;5052080;28;20029;-81
2022/09/08 11:13:25;;;;;;;18.17;7.25;;;;;;;26.20;48.89;100195.28;5053889;28;20033;-80
2022/09/08 11:16:19;;;;;;;25.35;8.55;;;;;;;26.49;48.79;100196.25;5053151;28;20071;-81
2022/09/08 11:19:03;;;;;;;21.20;7.78;;;;;;;26.53;47.87;100204.59;5052998;28;20021;-81
2022/09/08 11:21:38;;;;;;;20.20;7.40;;;;;;;26.60;47.29;100198.00;5053749;28;20395;-82
2022/09/08 11:24:25;;;;;;;16.63;6.20;;;;;;;26.69;46.80;100199.00;5053624;28;20032;-81
2022/09/08 11:27:17;;;;;;;14.05;6.03;;;;;;;26.76;46.06;100195.25;5052904;28;20035;-81
2022/09/08 11:29:50;;;;;;;18.42;6.93;;;;;;;26.84;46.08;100202.25;5053324;28;20033;-81
2022/09/08 11:32:31;;;;;;;18.58;6.10;;;;;;;26.93;45.73;100208.03;5068817;28;20102;-81
2022/09/08 11:35:18;;;;;;;18.85;5.93;;;;;;;26.77;45.89;100213.66;5052383;28;20419;-81
2022/09/08 11:38:11;;;;;;;13.32;5.57;;;;;;;26.58;45.71;100211.69;5053326;28;20036;-81
2022/09/08 11:40:55;;;;;;;20.55;6.10;;;;;;;26.46;45.67;100221.56;5053573;28;20028;-79
2022/09/08 11:43:42;;;;;;;16.77;6.07;;;;;;;26.30;46.49;100219.47;5053189;28;20033;-79
2022/09/08 11:46:30;;;;;;;20.25;6.80;;;;;;;26.13;46.60;100221.41;5052899;28;20033;-79
2022/09/08 11:49:41;;;;;;;18.17;5.53;;;;;;;26.09;46.54;100215.13;5053166;28;20025;-79
2022/09/08 11:52:38;;;;;;;18.08;6.43;;;;;;;26.18;46.89;100228.53;5053149;28;20364;-79
2022/09/08 11:55:07;;;;;;;18.45;5.53;;;;;;;26.24;47.51;100233.19;5050393;28;20055;-80
2022/09/08 11:57:53;;;;;;;17.45;6.13;;;;;;;26.28;46.79;100233.09;5053106;28;20032;-79
2022/09/08 12:00:46;;;;;;;15.20;5.70;;;;;;;26.33;46.68;100235.41;5052993;28;20024;-79